Language: 


Des rapports , des résumés tant et plus, au choix de chacun....


Données statistiques de la station
Quotidien Rapport Aout 23, 2017 Unités:  Métrique    Anglais   les deux
« Précédent Jour
Suivant Jour »
Quotidien Hebdomadaire Mensuel Annuel Actuel
  Haut: Bas: Moyen:
Température: 30.9 °C 0.0 °C 20.4 °C
Pt de rosée: 21.0 °C 14.0 °C 16.7 °C
Humidité: 96 % 0 % 79 %
Vitesse du vent: 32.8 km/h 0.0 km/h 6.4 km/h
Rafales: 37.5 km/h - -
Vent:- - SW
Pression: 1016.1 hPa 1012.1 hPa -
Précipitation: 0.0 mm    
Historical Graphs
 
 
Données statistiques pour Aout 23, 2017
Heure Température Point de rosée Pression Vent Vitesse du vent Refales Humidité Pluie (taux horaire)
00:01 17.6 °C 16.0 °C 1016.1 hPa Calm     88 % 0.0 mm
00:06 17.5 °C 16.0 °C 1016.1 hPa Calm     88 % 0.0 mm
00:11 17.4 °C 16.0 °C 1016.1 hPa Calm   5.8 km/h 89 % 0.0 mm
00:16 17.4 °C 16.0 °C 1015.1 hPa Calm   5.8 km/h 89 % 0.0 mm
00:21 17.3 °C 16.0 °C 1015.1 hPa Calm   5.0 km/h 90 % 0.0 mm
00:26 17.3 °C 16.0 °C 1015.1 hPa Calm   4.3 km/h 90 % 0.0 mm
00:31 17.3 °C 16.0 °C 1015.1 hPa Calm     90 % 0.0 mm
00:36 17.2 °C 16.0 °C 1015.1 hPa Calm   4.3 km/h 90 % 0.0 mm
00:41 17.2 °C 16.0 °C 1015.1 hPa Calm   4.3 km/h 91 % 0.0 mm
00:46 17.2 °C 16.0 °C 1015.1 hPa Calm     90 % 0.0 mm
00:51 17.1 °C 16.0 °C 1015.1 hPa Calm     91 % 0.0 mm
00:56 17.1 °C 16.0 °C 1015.1 hPa Calm   2.1 km/h 91 % 0.0 mm
01:02 17.0 °C 16.0 °C 1015.1 hPa Calm   2.1 km/h 91 % 0.0 mm
01:07 17.0 °C 16.0 °C 1015.1 hPa Calm     91 % 0.0 mm
01:12 17.0 °C 16.0 °C 1015.1 hPa Calm     91 % 0.0 mm
01:17 17.0 °C 16.0 °C 1014.1 hPa Calm     91 % 0.0 mm
01:22 17.0 °C 16.0 °C 1014.1 hPa Calm   1.8 km/h 91 % 0.0 mm
01:27 17.0 °C 16.0 °C 1014.1 hPa Calm   1.8 km/h 91 % 0.0 mm
01:32 17.0 °C 16.0 °C 1015.1 hPa Calm     91 % 0.0 mm
01:37 17.0 °C 16.0 °C 1015.1 hPa Calm   2.1 km/h 91 % 0.0 mm
01:42 16.8 °C 15.0 °C 1015.1 hPa NE 2.6 km/h 5.0 km/h 91 % 0.0 mm
01:47 16.7 °C 15.0 °C 1015.1 hPa Calm   5.0 km/h 91 % 0.0 mm
01:52 16.6 °C 15.0 °C 1015.1 hPa Calm   3.2 km/h 91 % 0.0 mm
01:57 16.6 °C 15.0 °C 1015.1 hPa Calm     91 % 0.0 mm
02:02 16.6 °C 15.0 °C 1014.1 hPa Calm     91 % 0.0 mm
02:07 16.5 °C 15.0 °C 1014.1 hPa Calm     91 % 0.0 mm
02:12 16.5 °C 15.0 °C 1014.1 hPa Calm     91 % 0.0 mm
02:17 16.5 °C 15.0 °C 1015.1 hPa Calm     91 % 0.0 mm
02:22 16.3 °C 15.0 °C 1015.1 hPa Calm     91 % 0.0 mm
02:25 16.3 °C 15.0 °C 1015.1 hPa Calm     91 % 0.0 mm
02:30 16.3 °C 15.0 °C 1015.1 hPa Calm     91 % 0.0 mm
02:35 16.3 °C 15.0 °C 1015.1 hPa Calm     91 % 0.0 mm
02:40 16.2 °C 15.0 °C 1015.1 hPa Calm     91 % 0.0 mm
02:45 16.1 °C 15.0 °C 1016.1 hPa Calm   4.7 km/h 92 % 0.0 mm
02:50 16.1 °C 15.0 °C 1016.1 hPa Calm   4.7 km/h 92 % 0.0 mm
02:55 16.1 °C 15.0 °C 1016.1 hPa Calm   2.1 km/h 92 % 0.0 mm
03:01 0.0 °C 15.0 °C 1015.1 hPa Calm     0 % 0.0 mm
03:06 0.0 °C 15.0 °C 1015.1 hPa Calm     0 % 0.0 mm
03:11 16.0 °C 15.0 °C 1015.1 hPa Calm     92 % 0.0 mm
03:22 15.9 °C 15.0 °C 1015.1 hPa Calm     92 % 0.0 mm
03:27 15.9 °C 15.0 °C 1015.1 hPa Calm     92 % 0.0 mm
03:32 15.9 °C 15.0 °C 1015.1 hPa Calm     92 % 0.0 mm
03:37 15.8 °C 14.0 °C 1015.1 hPa Calm     92 % 0.0 mm
03:42 15.8 °C 15.0 °C 1015.1 hPa Calm     93 % 0.0 mm
03:47 15.8 °C 15.0 °C 1015.1 hPa Calm     93 % 0.0 mm
03:52 15.8 °C 15.0 °C 1015.1 hPa Calm     93 % 0.0 mm
03:57 15.8 °C 15.0 °C 1015.1 hPa Calm     93 % 0.0 mm
04:02 15.8 °C 15.0 °C 1015.1 hPa Calm     93 % 0.0 mm
04:07 15.8 °C 15.0 °C 1015.1 hPa Calm     93 % 0.0 mm
04:12 15.8 °C 15.0 °C 1015.1 hPa Calm     93 % 0.0 mm
04:17 15.8 °C 15.0 °C 1014.1 hPa Calm     93 % 0.0 mm
04:22 15.8 °C 15.0 °C 1014.1 hPa Calm     93 % 0.0 mm
04:27 15.7 °C 15.0 °C 1014.1 hPa Calm     93 % 0.0 mm
04:32 15.7 °C 15.0 °C 1015.1 hPa Calm     93 % 0.0 mm
04:37 15.6 °C 15.0 °C 1015.1 hPa Calm   2.1 km/h 93 % 0.0 mm
04:42 15.6 °C 15.0 °C 1015.1 hPa Calm   2.1 km/h 93 % 0.0 mm
04:47 15.6 °C 15.0 °C 1014.1 hPa Calm   4.3 km/h 93 % 0.0 mm
04:52 15.6 °C 15.0 °C 1014.1 hPa Calm   4.3 km/h 93 % 0.0 mm
04:57 15.6 °C 15.0 °C 1014.1 hPa East 3.2 km/h 3.2 km/h 94 % 0.0 mm
05:02 15.6 °C 15.0 °C 1014.1 hPa Calm   4.3 km/h 94 % 0.0 mm
05:07 15.7 °C 15.0 °C 1014.1 hPa Calm   4.3 km/h 94 % 0.0 mm
05:12 15.7 °C 15.0 °C 1014.1 hPa Calm   2.1 km/h 94 % 0.0 mm
05:17 15.8 °C 15.0 °C 1014.1 hPa Calm   1.8 km/h 94 % 0.0 mm
05:22 15.8 °C 15.0 °C 1014.1 hPa Calm     94 % 0.0 mm
05:27 15.8 °C 15.0 °C 1014.1 hPa Calm   4.3 km/h 94 % 0.0 mm
05:32 15.9 °C 15.0 °C 1014.1 hPa Calm   4.3 km/h 94 % 0.0 mm
05:37 15.9 °C 15.0 °C 1014.1 hPa Calm     94 % 0.0 mm
05:42 15.9 °C 15.0 °C 1014.1 hPa Calm     94 % 0.0 mm
05:47 15.9 °C 15.0 °C 1014.1 hPa Calm     94 % 0.0 mm
05:52 15.8 °C 15.0 °C 1014.1 hPa Calm     94 % 0.0 mm
05:57 15.8 °C 15.0 °C 1014.1 hPa Calm     94 % 0.0 mm
06:02 15.6 °C 15.0 °C 1014.1 hPa Calm     93 % 0.0 mm
06:07 15.6 °C 15.0 °C 1014.1 hPa Calm     94 % 0.0 mm
06:12 15.4 °C 14.0 °C 1014.1 hPa Calm     93 % 0.0 mm
06:17 15.4 °C 14.0 °C 1014.1 hPa Calm     93 % 0.0 mm
06:23 15.2 °C 14.0 °C 1014.1 hPa Calm     94 % 0.0 mm
06:28 15.2 °C 14.0 °C 1014.1 hPa Calm     94 % 0.0 mm
06:33 15.2 °C 14.0 °C 1014.1 hPa Calm     94 % 0.0 mm
06:38 15.2 °C 14.0 °C 1014.1 hPa Calm     94 % 0.0 mm
06:43 15.1 °C 14.0 °C 1014.1 hPa Calm     95 % 0.0 mm
06:48 15.1 °C 14.0 °C 1014.1 hPa Calm     95 % 0.0 mm
06:53 15.0 °C 14.0 °C 1014.1 hPa Calm     95 % 0.0 mm
06:58 14.9 °C 14.0 °C 1014.1 hPa Calm   1.4 km/h 95 % 0.0 mm
07:03 14.9 °C 14.0 °C 1014.1 hPa Calm   1.4 km/h 95 % 0.0 mm
07:08 14.9 °C 15.0 °C 1014.1 hPa Calm     96 % 0.0 mm
07:13 14.9 °C 15.0 °C 1014.1 hPa Calm     96 % 0.0 mm
07:18 14.9 °C 15.0 °C 1014.1 hPa Calm     96 % 0.0 mm
07:23 14.9 °C 15.0 °C 1014.1 hPa Calm     96 % 0.0 mm
07:28 14.9 °C 15.0 °C 1014.1 hPa Calm     96 % 0.0 mm
07:33 14.9 °C 15.0 °C 1014.1 hPa Calm     96 % 0.0 mm
07:38 14.9 °C 15.0 °C 1014.1 hPa Calm     96 % 0.0 mm
07:43 14.9 °C 15.0 °C 1014.1 hPa Calm     96 % 0.0 mm
07:48 14.9 °C 15.0 °C 1014.1 hPa Calm   28.8 km/h 96 % 0.0 mm
07:53 16.3 °C 16.0 °C 1014.1 hPa Calm   28.8 km/h 96 % 0.0 mm
07:58 16.9 °C 17.0 °C 1014.1 hPa Calm     96 % 0.0 mm
08:04 17.1 °C 16.0 °C 1014.1 hPa Calm     95 % 0.0 mm
08:09 17.9 °C 17.0 °C 1014.1 hPa Calm     95 % 0.0 mm
08:14 18.2 °C 17.0 °C 1014.1 hPa Calm     94 % 0.0 mm
08:19 18.4 °C 17.0 °C 1014.1 hPa Calm     94 % 0.0 mm
08:24 18.8 °C 18.0 °C 1014.1 hPa Calm     93 % 0.0 mm
08:29 19.2 °C 18.0 °C 1014.1 hPa Calm     92 % 0.0 mm
08:34 19.5 °C 18.0 °C 1014.1 hPa Calm     91 % 0.0 mm
08:39 19.7 °C 18.0 °C 1014.1 hPa Calm     91 % 0.0 mm
08:44 20.0 °C 18.0 °C 1014.1 hPa Calm     89 % 0.0 mm
08:49 20.3 °C 19.0 °C 1013.1 hPa Calm     89 % 0.0 mm
08:54 20.5 °C 19.0 °C 1013.1 hPa Calm     88 % 0.0 mm
08:59 20.9 °C 19.0 °C 1013.1 hPa Calm     88 % 0.0 mm
09:04 21.2 °C 19.0 °C 1013.1 hPa Calm     86 % 0.0 mm
09:09 21.5 °C 19.0 °C 1013.1 hPa Calm     84 % 0.0 mm
09:11 21.6 °C 19.0 °C 1013.1 hPa Calm     84 % 0.0 mm
09:16 21.8 °C 19.0 °C 1013.1 hPa Calm     82 % 0.0 mm
09:21 22.1 °C 19.0 °C 1013.1 hPa Calm     81 % 0.0 mm
09:26 22.5 °C 19.0 °C 1013.1 hPa Calm     81 % 0.0 mm
09:31 22.9 °C 19.0 °C 1013.1 hPa Calm     79 % 0.0 mm
09:37 23.3 °C 19.0 °C 1013.1 hPa Calm     78 % 0.0 mm
09:42 23.7 °C 20.0 °C 1013.1 hPa Calm     77 % 0.0 mm
09:47 23.8 °C 19.0 °C 1013.1 hPa Calm     72 % 0.0 mm
09:52 23.8 °C 18.0 °C 1013.1 hPa Calm     69 % 0.0 mm
09:57 23.6 °C 17.0 °C 1013.1 hPa Calm     65 % 0.0 mm
10:02 23.7 °C 17.0 °C 1014.1 hPa Calm     66 % 0.0 mm
10:07 23.5 °C 17.0 °C 1014.1 hPa Calm     66 % 0.0 mm
10:12 23.9 °C 18.0 °C 1014.1 hPa Calm     68 % 0.0 mm
10:17 24.4 °C 18.0 °C 1013.1 hPa Calm     66 % 0.0 mm
10:22 24.8 °C 18.0 °C 1013.1 hPa SW 9.3 km/h 13.7 km/h 64 % 0.0 mm
10:27 24.2 °C 17.0 °C 1013.1 hPa SSE 9.3 km/h 13.7 km/h 63 % 0.0 mm
10:32 24.0 °C 17.0 °C 1013.1 hPa SSW 1.4 km/h 11.9 km/h 64 % 0.0 mm
10:37 24.4 °C 18.0 °C 1013.1 hPa SSW 4.0 km/h 10.5 km/h 66 % 0.0 mm
10:38 24.4 °C 18.0 °C 1013.1 hPa SW 7.9 km/h 10.5 km/h 66 % 0.0 mm
10:43 24.2 °C 17.0 °C 1013.1 hPa SSW 6.4 km/h 8.7 km/h 64 % 0.0 mm
10:48 24.5 °C 18.0 °C 1013.1 hPa SSE 1.4 km/h 7.9 km/h 67 % 0.0 mm
10:53 25.1 °C 18.0 °C 1013.1 hPa SSE 2.6 km/h 4.7 km/h 66 % 0.0 mm
10:58 25.7 °C 19.0 °C 1013.1 hPa SSE 4.7 km/h 12.2 km/h 65 % 0.0 mm
11:03 25.8 °C 19.0 °C 1013.1 hPa Calm   12.2 km/h 64 % 0.0 mm
11:08 25.8 °C 18.0 °C 1013.1 hPa SSE 5.0 km/h 10.5 km/h 63 % 0.0 mm
11:13 25.9 °C 18.0 °C 1013.1 hPa South 4.0 km/h 8.7 km/h 62 % 0.0 mm
11:18 26.1 °C 18.0 °C 1013.1 hPa SSW 6.4 km/h 11.6 km/h 61 % 0.0 mm
11:23 26.6 °C 19.0 °C 1013.1 hPa SSW 2.1 km/h 11.6 km/h 62 % 0.0 mm
11:28 26.9 °C 18.0 °C 1013.1 hPa SSE 5.0 km/h 9.7 km/h 58 % 0.0 mm
11:33 26.7 °C 18.0 °C 1013.1 hPa SSW 5.8 km/h 9.7 km/h 59 % 0.0 mm
11:38 26.6 °C 18.0 °C 1013.1 hPa SSE 4.0 km/h 9.0 km/h 59 % 0.0 mm
11:43 27.1 °C 19.0 °C 1013.1 hPa SSE 3.5 km/h 6.1 km/h 61 % 0.0 mm
11:48 27.0 °C 18.0 °C 1013.1 hPa SSE 4.7 km/h 13.0 km/h 57 % 0.0 mm
11:53 27.0 °C 18.0 °C 1013.1 hPa Calm   13.0 km/h 57 % 0.0 mm
11:58 27.2 °C 18.0 °C 1013.1 hPa ESE 9.3 km/h 10.5 km/h 57 % 0.0 mm
12:03 27.3 °C 19.0 °C 1012.1 hPa SSW 5.8 km/h 10.5 km/h 58 % 0.0 mm
12:08 27.4 °C 18.0 °C 1012.1 hPa WSW 6.4 km/h 9.3 km/h 57 % 0.0 mm
12:13 27.8 °C 19.0 °C 1012.1 hPa SSW 6.4 km/h 10.5 km/h 57 % 0.0 mm
12:18 27.7 °C 18.0 °C 1013.1 hPa SSE 9.0 km/h 10.5 km/h 56 % 0.0 mm
12:23 28.0 °C 19.0 °C 1013.1 hPa Calm   13.7 km/h 57 % 0.0 mm
12:28 28.4 °C 19.0 °C 1013.1 hPa SSW 4.0 km/h 13.7 km/h 56 % 0.0 mm
12:33 28.8 °C 19.0 °C 1012.1 hPa Calm   10.1 km/h 54 % 0.0 mm
12:39 28.6 °C 19.0 °C 1012.1 hPa Calm   10.1 km/h 55 % 0.0 mm
12:44 28.7 °C 19.0 °C 1012.1 hPa SSE 12.2 km/h 12.2 km/h 56 % 0.0 mm
12:49 28.6 °C 19.0 °C 1012.1 hPa SSW 4.7 km/h 12.2 km/h 54 % 0.0 mm
12:54 28.7 °C 18.0 °C 1012.1 hPa South 7.9 km/h 13.7 km/h 52 % 0.0 mm
12:59 28.6 °C 18.0 °C 1012.1 hPa SSE 10.1 km/h 13.7 km/h 52 % 0.0 mm
13:04 28.5 °C 18.0 °C 1013.1 hPa Calm   12.6 km/h 51 % 0.0 mm
13:09 28.6 °C 19.0 °C 1013.1 hPa SSE 5.0 km/h 12.2 km/h 53 % 0.0 mm
13:14 28.8 °C 19.0 °C 1013.1 hPa South 5.8 km/h 9.0 km/h 55 % 0.0 mm
13:19 28.7 °C 19.0 °C 1013.1 hPa SSW 2.6 km/h 13.0 km/h 53 % 0.0 mm
13:24 28.3 °C 18.0 °C 1013.1 hPa Calm   13.0 km/h 52 % 0.0 mm
13:29 28.1 °C 18.0 °C 1013.1 hPa SW 1.8 km/h 10.1 km/h 55 % 0.0 mm
13:34 28.0 °C 18.0 °C 1013.1 hPa Calm   9.3 km/h 55 % 0.0 mm
13:39 27.9 °C 19.0 °C 1013.1 hPa South 1.4 km/h 8.7 km/h 57 % 0.0 mm
13:44 28.4 °C 19.0 °C 1013.1 hPa Calm   8.7 km/h 56 % 0.0 mm
13:49 28.8 °C 19.0 °C 1013.1 hPa Calm   10.5 km/h 55 % 0.0 mm
13:55 28.9 °C 20.0 °C 1013.1 hPa Calm   10.5 km/h 57 % 0.0 mm
14:00 28.8 °C 19.0 °C 1013.1 hPa SE 2.6 km/h 9.0 km/h 56 % 0.0 mm
14:05 29.5 °C 20.0 °C 1013.1 hPa Calm   8.7 km/h 55 % 0.0 mm
14:10 29.9 °C 19.0 °C 1013.1 hPa SW 9.7 km/h 14.0 km/h 53 % 0.0 mm
14:15 30.0 °C 19.0 °C 1013.1 hPa SW 1.4 km/h 14.0 km/h 51 % 0.0 mm
14:20 29.7 °C 19.0 °C 1013.1 hPa WSW 5.8 km/h 9.7 km/h 53 % 0.0 mm
14:25 29.7 °C 19.0 °C 1013.1 hPa WSW 9.7 km/h 14.3 km/h 52 % 0.0 mm
14:30 30.1 °C 19.0 °C 1013.1 hPa South 5.0 km/h 14.3 km/h 52 % 0.0 mm
14:35 30.2 °C 20.0 °C 1013.1 hPa SSW 6.4 km/h 14.3 km/h 52 % 0.0 mm
14:40 30.5 °C 19.0 °C 1013.1 hPa SW 5.8 km/h 13.7 km/h 49 % 0.0 mm
14:45 30.7 °C 20.0 °C 1013.1 hPa SW 6.9 km/h 12.6 km/h 52 % 0.0 mm
14:50 30.9 °C 20.0 °C 1013.1 hPa SSW 6.1 km/h 12.6 km/h 51 % 0.0 mm
14:55 30.8 °C 19.0 °C 1013.1 hPa WSW 6.4 km/h 14.0 km/h 50 % 0.0 mm
15:00 30.7 °C 19.0 °C 1013.1 hPa SSW 4.0 km/h 14.0 km/h 50 % 0.0 mm
15:05 30.4 °C 19.0 °C 1013.1 hPa WSW 9.7 km/h 19.8 km/h 50 % 0.0 mm
15:10 30.4 °C 19.0 °C 1013.1 hPa WSW 10.1 km/h 19.8 km/h 50 % 0.0 mm
15:15 30.4 °C 19.0 °C 1013.1 hPa SW 13.7 km/h 15.8 km/h 50 % 0.0 mm
15:20 29.7 °C 20.0 °C 1013.1 hPa WSW 17.7 km/h 17.7 km/h 54 % 0.0 mm
15:25 29.7 °C 21.0 °C 1013.1 hPa West 18.3 km/h 24.5 km/h 59 % 0.0 mm
15:30 28.7 °C 21.0 °C 1012.1 hPa WSW 30.2 km/h 32.0 km/h 60 % 0.0 mm
15:35 27.2 °C 20.0 °C 1012.1 hPa WSW 28.5 km/h 32.0 km/h 63 % 0.0 mm
15:40 26.1 °C 19.0 °C 1012.1 hPa WSW 28.0 km/h 31.4 km/h 64 % 0.0 mm
15:45 25.3 °C 19.0 °C 1012.1 hPa West 27.0 km/h 28.8 km/h 68 % 0.0 mm
15:51 24.5 °C 19.0 °C 1012.1 hPa WSW 31.4 km/h 35.2 km/h 69 % 0.0 mm
15:56 24.1 °C 19.0 °C 1012.1 hPa West 32.8 km/h 35.2 km/h 72 % 0.0 mm
16:01 24.0 °C 19.0 °C 1013.1 hPa West 32.0 km/h 37.5 km/h 73 % 0.0 mm
16:06 23.5 °C 19.0 °C 1013.1 hPa West 24.8 km/h 37.5 km/h 75 % 0.0 mm
16:11 23.4 °C 19.0 °C 1013.1 hPa WSW 21.2 km/h 36.7 km/h 76 % 0.0 mm
16:16 23.2 °C 19.0 °C 1014.1 hPa West 23.0 km/h 31.4 km/h 77 % 0.0 mm
16:21 23.0 °C 19.0 °C 1014.1 hPa WSW 17.2 km/h 31.4 km/h 77 % 0.0 mm
16:26 22.9 °C 19.0 °C 1014.1 hPa West 19.8 km/h 28.0 km/h 78 % 0.0 mm
16:31 22.7 °C 19.0 °C 1014.1 hPa West 22.7 km/h 28.0 km/h 78 % 0.0 mm
16:36 22.6 °C 19.0 °C 1014.1 hPa West 21.6 km/h 26.2 km/h 78 % 0.0 mm
16:41 22.6 °C 19.0 °C 1014.1 hPa WSW 27.4 km/h 27.4 km/h 78 % 0.0 mm
16:46 22.6 °C 19.0 °C 1014.1 hPa WSW 15.8 km/h 27.4 km/h 79 % 0.0 mm
16:51 22.6 °C 19.0 °C 1014.1 hPa West 20.6 km/h 27.4 km/h 79 % 0.0 mm
16:56 22.3 °C 18.0 °C 1014.1 hPa West 26.2 km/h 27.7 km/h 78 % 0.0 mm
17:01 22.0 °C 18.0 °C 1014.1 hPa WSW 20.9 km/h 28.0 km/h 78 % 0.0 mm
17:06 22.0 °C 18.0 °C 1014.1 hPa West 17.7 km/h 33.5 km/h 78 % 0.0 mm
17:11 22.0 °C 18.0 °C 1014.1 hPa WSW 16.9 km/h 33.5 km/h 78 % 0.0 mm
17:16 21.9 °C 18.0 °C 1014.1 hPa West 15.8 km/h 30.6 km/h 79 % 0.0 mm
17:21 21.9 °C 18.0 °C 1014.1 hPa West 20.9 km/h 33.1 km/h 78 % 0.0 mm
17:26 22.0 °C 18.0 °C 1014.1 hPa West 27.4 km/h 33.5 km/h 78 % 0.0 mm
17:31 22.0 °C 18.0 °C 1014.1 hPa WSW 17.7 km/h 33.5 km/h 78 % 0.0 mm
17:36 22.0 °C 18.0 °C 1014.1 hPa West 15.8 km/h 29.1 km/h 78 % 0.0 mm
17:42 22.0 °C 18.0 °C 1014.1 hPa West 11.9 km/h 29.1 km/h 78 % 0.0 mm
17:47 22.0 °C 18.0 °C 1014.1 hPa WSW 14.0 km/h 23.0 km/h 78 % 0.0 mm
17:52 22.0 °C 18.0 °C 1014.1 hPa West 14.0 km/h 21.2 km/h 78 % 0.0 mm
17:57 21.6 °C 18.0 °C 1014.1 hPa West 17.7 km/h 21.2 km/h 79 % 0.0 mm
18:02 21.6 °C 18.0 °C 1014.1 hPa WNW 19.1 km/h 25.3 km/h 79 % 0.0 mm
18:07 21.6 °C 18.0 °C 1014.1 hPa West 13.7 km/h 27.4 km/h 79 % 0.0 mm
18:12 21.6 °C 18.0 °C 1014.1 hPa WSW 20.1 km/h 27.4 km/h 79 % 0.0 mm
18:17 21.6 °C 18.0 °C 1014.1 hPa West 13.0 km/h 25.9 km/h 79 % 0.0 mm
18:22 21.6 °C 18.0 °C 1014.1 hPa SSW 16.3 km/h 24.8 km/h 79 % 0.0 mm
18:27 21.6 °C 18.0 °C 1014.1 hPa West 19.8 km/h 21.2 km/h 79 % 0.0 mm
18:32 21.6 °C 18.0 °C 1014.1 hPa West 17.2 km/h 23.8 km/h 79 % 0.0 mm
18:37 21.0 °C 17.0 °C 1014.1 hPa West 16.3 km/h 23.8 km/h 78 % 0.0 mm
18:42 21.0 °C 17.0 °C 1014.1 hPa WSW 23.8 km/h 23.8 km/h 78 % 0.0 mm
18:47 21.0 °C 17.0 °C 1014.1 hPa West 12.6 km/h 23.8 km/h 78 % 0.0 mm
18:52 21.0 °C 17.0 °C 1014.1 hPa West 15.1 km/h 23.8 km/h 78 % 0.0 mm
18:57 21.0 °C 17.0 °C 1014.1 hPa WSW 14.0 km/h 24.5 km/h 78 % 0.0 mm
19:02 20.7 °C 17.0 °C 1014.1 hPa WSW 10.1 km/h 24.5 km/h 78 % 0.0 mm
19:07 20.7 °C 17.0 °C 1014.1 hPa WSW 11.9 km/h 20.1 km/h 78 % 0.0 mm
19:08 20.7 °C 17.0 °C 1014.1 hPa West 14.8 km/h 20.1 km/h 78 % 0.0 mm
19:13 20.7 °C 17.0 °C 1014.1 hPa SW 20.6 km/h 21.2 km/h 78 % 0.0 mm
19:18 20.7 °C 17.0 °C 1014.1 hPa West 16.9 km/h 22.4 km/h 78 % 0.0 mm
19:23 20.7 °C 17.0 °C 1014.1 hPa WSW 13.7 km/h 22.7 km/h 78 % 0.0 mm
19:28 20.7 °C 17.0 °C 1014.1 hPa WSW 16.3 km/h 22.7 km/h 78 % 0.0 mm
19:33 20.7 °C 17.0 °C 1014.1 hPa West 16.6 km/h 20.9 km/h 78 % 0.0 mm
19:34 20.7 °C 17.0 °C 1014.1 hPa West 20.6 km/h 20.9 km/h 78 % 0.0 mm
19:39 20.7 °C 17.0 °C 1014.1 hPa West 13.0 km/h 23.3 km/h 78 % 0.0 mm
19:42 20.7 °C 17.0 °C 1014.1 hPa West 16.6 km/h 23.3 km/h 78 % 0.0 mm
19:47 20.7 °C 17.0 °C 1015.1 hPa WSW 14.3 km/h 26.7 km/h 78 % 0.0 mm
19:52 20.7 °C 17.0 °C 1015.1 hPa WSW 14.0 km/h 26.7 km/h 78 % 0.0 mm
19:57 20.7 °C 17.0 °C 1015.1 hPa SW 15.4 km/h 20.6 km/h 78 % 0.0 mm
20:02 20.7 °C 17.0 °C 1015.1 hPa West 25.6 km/h 25.6 km/h 78 % 0.0 mm
20:07 19.3 °C 15.0 °C 1015.1 hPa WSW 10.5 km/h 25.6 km/h 77 % 0.0 mm
20:12 19.3 °C 15.0 °C 1015.1 hPa West 8.7 km/h 21.6 km/h 77 % 0.0 mm
20:17 19.0 °C 15.0 °C 1015.1 hPa West 16.6 km/h 20.1 km/h 78 % 0.0 mm
20:27 18.7 °C 15.0 °C 1015.1 hPa West 17.2 km/h 24.8 km/h 79 % 0.0 mm
20:32 18.7 °C 15.0 °C 1015.1 hPa West 13.7 km/h 24.8 km/h 80 % 0.0 mm
20:37 18.5 °C 15.0 °C 1015.1 hPa West 13.7 km/h 23.8 km/h 80 % 0.0 mm
20:42 18.4 °C 15.0 °C 1015.1 hPa WSW 10.1 km/h 19.5 km/h 81 % 0.0 mm
20:46 18.3 °C 15.0 °C 1015.1 hPa West 9.3 km/h 18.0 km/h 81 % 0.0 mm
20:51 18.2 °C 15.0 °C 1015.1 hPa WSW 9.3 km/h 17.2 km/h 82 % 0.0 mm
20:56 18.1 °C 15.0 °C 1015.1 hPa West 12.6 km/h 19.1 km/h 82 % 0.0 mm
21:01 18.0 °C 15.0 °C 1015.1 hPa WSW 13.0 km/h 19.1 km/h 83 % 0.0 mm
21:06 17.9 °C 15.0 °C 1015.1 hPa WSW 8.7 km/h 15.8 km/h 83 % 0.0 mm
21:11 17.8 °C 15.0 °C 1015.1 hPa West 13.7 km/h 16.6 km/h 84 % 0.0 mm
21:16 17.7 °C 15.0 °C 1015.1 hPa WSW 13.0 km/h 16.6 km/h 85 % 0.0 mm
21:21 17.6 °C 15.0 °C 1015.1 hPa SSW 6.9 km/h 16.3 km/h 85 % 0.0 mm
21:26 17.5 °C 15.0 °C 1015.1 hPa WSW 11.9 km/h 14.0 km/h 85 % 0.0 mm
21:31 17.4 °C 15.0 °C 1014.1 hPa WSW 9.7 km/h 16.9 km/h 86 % 0.0 mm
21:36 17.4 °C 15.0 °C 1014.1 hPa WSW 9.0 km/h 18.0 km/h 87 % 0.0 mm
21:41 17.4 °C 15.0 °C 1014.1 hPa West 10.8 km/h 18.0 km/h 87 % 0.0 mm
21:46 17.3 °C 15.0 °C 1015.1 hPa West 8.7 km/h 17.7 km/h 87 % 0.0 mm
21:51 17.2 °C 15.0 °C 1015.1 hPa WSW 11.9 km/h 13.7 km/h 87 % 0.0 mm
21:57 17.1 °C 15.0 °C 1015.1 hPa WSW 9.7 km/h 15.4 km/h 88 % 0.0 mm
22:02 17.1 °C 15.0 °C 1014.1 hPa WSW 8.7 km/h 15.4 km/h 88 % 0.0 mm
22:07 17.0 °C 15.0 °C 1014.1 hPa West 10.5 km/h 13.7 km/h 89 % 0.0 mm
22:12 17.0 °C 15.0 °C 1014.1 hPa West 15.4 km/h 15.4 km/h 89 % 0.0 mm
22:17 16.9 °C 15.0 °C 1015.1 hPa West 9.3 km/h 15.4 km/h 89 % 0.0 mm
22:22 16.8 °C 15.0 °C 1015.1 hPa WSW 16.3 km/h 18.0 km/h 90 % 0.0 mm
22:27 16.8 °C 15.0 °C 1015.1 hPa WSW 10.5 km/h 18.0 km/h 90 % 0.0 mm
22:32 16.7 °C 15.0 °C 1015.1 hPa WSW 9.0 km/h 16.6 km/h 91 % 0.0 mm
22:37 16.7 °C 15.0 °C 1015.1 hPa West 9.3 km/h 15.4 km/h 91 % 0.0 mm
22:42 16.6 °C 15.0 °C 1015.1 hPa WSW 9.7 km/h 15.4 km/h 91 % 0.0 mm
22:47 16.6 °C 15.0 °C 1015.1 hPa SSW 9.7 km/h 13.7 km/h 91 % 0.0 mm
22:52 16.5 °C 15.0 °C 1015.1 hPa WSW 9.0 km/h 13.0 km/h 91 % 0.0 mm
22:57 16.4 °C 15.0 °C 1015.1 hPa West 6.9 km/h 11.9 km/h 91 % 0.0 mm
23:02 16.3 °C 15.0 °C 1015.1 hPa WSW 8.7 km/h 13.7 km/h 92 % 0.0 mm
23:07 16.3 °C 15.0 °C 1015.1 hPa West 6.9 km/h 13.7 km/h 92 % 0.0 mm
23:12 16.3 °C 15.0 °C 1015.1 hPa WSW 3.2 km/h 12.6 km/h 92 % 0.0 mm
23:17 16.3 °C 15.0 °C 1015.1 hPa WSW 6.4 km/h 12.6 km/h 92 % 0.0 mm
23:22 16.3 °C 15.0 °C 1015.1 hPa Calm   12.6 km/h 92 % 0.0 mm
23:27 16.3 °C 15.0 °C 1015.1 hPa Calm   12.6 km/h 92 % 0.0 mm
23:32 16.3 °C 15.0 °C 1015.1 hPa Calm   9.3 km/h 92 % 0.0 mm
23:37 16.3 °C 15.0 °C 1015.1 hPa WSW 1.4 km/h 10.5 km/h 92 % 0.0 mm
23:42 16.3 °C 15.0 °C 1015.1 hPa SW 6.1 km/h 10.5 km/h 92 % 0.0 mm
23:47 16.3 °C 15.0 °C 1015.1 hPa Calm   7.9 km/h 92 % 0.0 mm
23:52 16.3 °C 15.0 °C 1015.1 hPa Calm   7.2 km/h 92 % 0.0 mm
23:57 16.3 °C 15.0 °C 1015.1 hPa WSW 5.8 km/h 6.9 km/h 92 % 0.0 mm
Le Gheer Warneton
Courtoisie de Weather Underground - 2.25 mb

Mise a jour : 16-12-17 12:12:11
Généré par Cumulus 1.9.4 (1099)